DLH25N LPPD-EDDF
Flight info
| Callsign | DLH25N |
|---|---|
| Flight time | N/A |
| Altitude | 35000 |
| Route | BEKU5X BEKUN DCT LENSI DCT ERPES/N0438F350 DCT PETEK DCT LOTEE DCT AZFIC UN741 MOKOR UN873 OBATO UM163 TSU UN858 OQQAL DCT RANUX DCT VALEK DCT LUTAX UM163 DIK T856 NIVNU T847 IMCOM IMCOM1D |
| Aircraft | A320/M-SDE2E3FGIJ1LORWXYZ/HB1 |
Departure
| Time | 2026-05-08 03:49 |
|---|---|
| Airport | João Paulo II Airport (LPPD) |
Arrival
| Time | N/A |
|---|---|
| Airport | Frankfurt Main Airport (EDDF) |
| Time | Latitude | Longitude | Altitude | Speed | Heading |
|---|---|---|---|---|---|
| 2026-05-08 03:17 | 37.74844 | -25.70997 | 272 ft | 0 kts | 23° |
| 2026-05-08 03:40 | 37.74839 | -25.70999 | 299 ft | 4 kts | 23° |
| 2026-05-08 03:40 | 37.74814 | -25.71013 | 270 ft | 4 kts | 22° |
| 2026-05-08 03:40 | 37.74794 | -25.71023 | 273 ft | 4 kts | 31° |
| 2026-05-08 03:41 | 37.74782 | -25.71043 | 278 ft | 4 kts | 102° |
| 2026-05-08 03:41 | 37.74790 | -25.71070 | 276 ft | 1 kts | 111° |
| 2026-05-08 03:41 | 37.74790 | -25.71071 | 276 ft | 0 kts | 111° |
| 2026-05-08 03:42 | 37.74790 | -25.71070 | 276 ft | 1 kts | 111° |
| 2026-05-08 03:43 | 37.74786 | -25.71058 | 277 ft | 2 kts | 111° |
| 2026-05-08 03:43 | 37.74779 | -25.71037 | 274 ft | 4 kts | 112° |
| 2026-05-08 03:43 | 37.74765 | -25.70992 | 274 ft | 7 kts | 112° |
| 2026-05-08 03:43 | 37.74744 | -25.70929 | 273 ft | 9 kts | 112° |
| 2026-05-08 03:44 | 37.74723 | -25.70860 | 271 ft | 8 kts | 111° |
| 2026-05-08 03:44 | 37.74704 | -25.70800 | 275 ft | 7 kts | 111° |
| 2026-05-08 03:44 | 37.74683 | -25.70733 | 271 ft | 10 kts | 112° |
| 2026-05-08 03:44 | 37.74656 | -25.70649 | 271 ft | 10 kts | 111° |
| 2026-05-08 03:45 | 37.74634 | -25.70578 | 271 ft | 8 kts | 111° |
| 2026-05-08 03:45 | 37.74613 | -25.70517 | 272 ft | 8 kts | 116° |
| 2026-05-08 03:45 | 37.74560 | -25.70435 | 266 ft | 15 kts | 143° |
| 2026-05-08 03:45 | 37.74467 | -25.70339 | 257 ft | 19 kts | 140° |
| 2026-05-08 03:46 | 37.74354 | -25.70216 | 245 ft | 23 kts | 133° |
| 2026-05-08 03:46 | 37.74282 | -25.70030 | 238 ft | 24 kts | 112° |
| 2026-05-08 03:46 | 37.74218 | -25.69826 | 234 ft | 25 kts | 111° |
| 2026-05-08 03:46 | 37.74155 | -25.69626 | 226 ft | 25 kts | 111° |
| 2026-05-08 03:47 | 37.74088 | -25.69411 | 216 ft | 27 kts | 111° |
| 2026-05-08 03:47 | 37.74014 | -25.69176 | 210 ft | 30 kts | 111° |
| 2026-05-08 03:47 | 37.73934 | -25.68925 | 197 ft | 32 kts | 112° |
| 2026-05-08 03:47 | 37.73861 | -25.68696 | 195 ft | 21 kts | 112° |
| 2026-05-08 03:48 | 37.73795 | -25.68570 | 188 ft | 15 kts | 148° |
| 2026-05-08 03:48 | 37.73741 | -25.68483 | 184 ft | 13 kts | 70° |
| 2026-05-08 03:48 | 37.73800 | -25.68488 | 184 ft | 10 kts | 295° |
| 2026-05-08 03:48 | 37.73828 | -25.68587 | 196 ft | 18 kts | 291° |
| 2026-05-08 03:49 | 37.73971 | -25.69042 | 206 ft | 93 kts | 291° |
| 2026-05-08 03:49 | 37.74297 | -25.70041 | 357 ft | 141 kts | 295° |
| 2026-05-08 03:49 | 37.74697 | -25.71169 | 1133 ft | 141 kts | 292° |
| 2026-05-08 03:49 | 37.74879 | -25.72437 | 1833 ft | 154 kts | 284° |
| 2026-05-08 03:50 | 37.74981 | -25.73872 | 2098 ft | 175 kts | 283° |
| 2026-05-08 03:50 | 37.75087 | -25.75499 | 2391 ft | 195 kts | 282° |
| 2026-05-08 03:50 | 37.75167 | -25.76700 | 2611 ft | 211 kts | 282° |
| 2026-05-08 03:50 | 37.75438 | -25.78564 | 3051 ft | 222 kts | 301° |
| 2026-05-08 03:51 | 37.76381 | -25.80092 | 3827 ft | 222 kts | 318° |
| 2026-05-08 03:51 | 37.77579 | -25.81385 | 4671 ft | 226 kts | 323° |
| 2026-05-08 03:51 | 37.78931 | -25.82344 | 5443 ft | 231 kts | 343° |
| 2026-05-08 03:51 | 37.80553 | -25.82505 | 6233 ft | 240 kts | 3° |
| 2026-05-08 03:52 | 37.82168 | -25.81806 | 6987 ft | 255 kts | 26° |
| 2026-05-08 03:52 | 37.83448 | -25.80178 | 7757 ft | 274 kts | 53° |
| 2026-05-08 03:52 | 37.84148 | -25.77876 | 8566 ft | 284 kts | 65° |
| 2026-05-08 03:52 | 37.84647 | -25.75430 | 9430 ft | 293 kts | 75° |
| 2026-05-08 03:53 | 37.84782 | -25.72815 | 10130 ft | 302 kts | 80° |
| 2026-05-08 03:53 | 37.84905 | -25.70063 | 10350 ft | 325 kts | 80° |
| 2026-05-08 03:53 | 37.85050 | -25.67131 | 10693 ft | 341 kts | 80° |
| 2026-05-08 03:53 | 37.85201 | -25.64112 | 11323 ft | 346 kts | 79° |
| 2026-05-08 03:54 | 37.85357 | -25.61048 | 11964 ft | 352 kts | 78° |
| 2026-05-08 03:54 | 37.85515 | -25.57943 | 12634 ft | 355 kts | 80° |
| 2026-05-08 03:54 | 37.85671 | -25.54808 | 13317 ft | 359 kts | 78° |
| 2026-05-08 03:54 | 37.85827 | -25.51643 | 13940 ft | 362 kts | 79° |
| 2026-05-08 03:55 | 37.85983 | -25.48451 | 14531 ft | 365 kts | 79° |
| 2026-05-08 03:55 | 37.86141 | -25.45232 | 15119 ft | 368 kts | 79° |
| 2026-05-08 03:55 | 37.86296 | -25.41980 | 15714 ft | 371 kts | 79° |
| 2026-05-08 03:55 | 37.86452 | -25.38707 | 16301 ft | 374 kts | 79° |
| 2026-05-08 03:56 | 37.86609 | -25.35408 | 16882 ft | 377 kts | 78° |
| 2026-05-08 03:56 | 37.86767 | -25.32081 | 17456 ft | 380 kts | 78° |
| 2026-05-08 03:56 | 37.86924 | -25.28726 | 18023 ft | 384 kts | 78° |
| 2026-05-08 03:56 | 37.87085 | -25.25345 | 18527 ft | 386 kts | 78° |
| 2026-05-08 03:57 | 37.87242 | -25.21942 | 19030 ft | 388 kts | 78° |
| 2026-05-08 03:57 | 37.87402 | -25.18523 | 19545 ft | 390 kts | 78° |
| 2026-05-08 03:57 | 37.87565 | -25.15083 | 20064 ft | 392 kts | 78° |
| 2026-05-08 03:57 | 37.87727 | -25.11635 | 20567 ft | 393 kts | 78° |
| 2026-05-08 03:58 | 37.87888 | -25.08172 | 21065 ft | 395 kts | 78° |
| 2026-05-08 03:58 | 37.88048 | -25.04694 | 21553 ft | 397 kts | 78° |
| 2026-05-08 03:58 | 37.88205 | -25.01196 | 22069 ft | 399 kts | 79° |
| 2026-05-08 03:58 | 37.88356 | -24.97677 | 22511 ft | 402 kts | 79° |
| 2026-05-08 03:59 | 37.88511 | -24.94137 | 22963 ft | 404 kts | 79° |
| 2026-05-08 03:59 | 37.88668 | -24.90579 | 23417 ft | 406 kts | 79° |
| 2026-05-08 03:59 | 37.88826 | -24.87005 | 23782 ft | 408 kts | 78° |
| 2026-05-08 03:59 | 37.88990 | -24.83409 | 24157 ft | 409 kts | 78° |
| 2026-05-08 04:00 | 37.89151 | -24.79805 | 24529 ft | 411 kts | 78° |
| 2026-05-08 04:00 | 37.89306 | -24.76185 | 24890 ft | 413 kts | 78° |
| 2026-05-08 04:00 | 37.89459 | -24.72550 | 25252 ft | 415 kts | 78° |
| 2026-05-08 04:00 | 37.89607 | -24.68897 | 25636 ft | 417 kts | 78° |
| 2026-05-08 04:01 | 37.89754 | -24.65221 | 25942 ft | 420 kts | 78° |
| 2026-05-08 04:01 | 37.89905 | -24.61524 | 26274 ft | 421 kts | 78° |
| 2026-05-08 04:01 | 37.90059 | -24.57814 | 26633 ft | 423 kts | 78° |
| 2026-05-08 04:01 | 37.90213 | -24.54091 | 26971 ft | 424 kts | 78° |
| 2026-05-08 04:02 | 37.90369 | -24.50354 | 27307 ft | 426 kts | 78° |
| 2026-05-08 04:02 | 37.90523 | -24.46597 | 27649 ft | 427 kts | 78° |
| 2026-05-08 04:02 | 37.90671 | -24.42832 | 27990 ft | 429 kts | 78° |
| 2026-05-08 04:02 | 37.90818 | -24.39053 | 28324 ft | 431 kts | 78° |
| 2026-05-08 04:03 | 37.90966 | -24.35264 | 28709 ft | 431 kts | 78° |
| 2026-05-08 04:03 | 37.91262 | -24.27653 | 29353 ft | 434 kts | 78° |
| 2026-05-08 04:03 | 37.91407 | -24.23830 | 29649 ft | 436 kts | 78° |
| 2026-05-08 04:04 | 37.91558 | -24.19995 | 29927 ft | 437 kts | 78° |
| 2026-05-08 04:04 | 37.91710 | -24.16146 | 30149 ft | 439 kts | 78° |
| 2026-05-08 04:04 | 37.91861 | -24.12279 | 30345 ft | 441 kts | 78° |
| 2026-05-08 04:04 | 37.92010 | -24.08384 | 30550 ft | 443 kts | 78° |
| 2026-05-08 04:05 | 37.92155 | -24.04478 | 30823 ft | 445 kts | 79° |
| 2026-05-08 04:05 | 37.92296 | -24.00567 | 31096 ft | 445 kts | 79° |
| 2026-05-08 04:05 | 37.92436 | -23.96650 | 31339 ft | 446 kts | 79° |
| 2026-05-08 04:05 | 37.92573 | -23.92722 | 31583 ft | 447 kts | 79° |
| 2026-05-08 04:06 | 37.92707 | -23.88783 | 31817 ft | 448 kts | 80° |
| 2026-05-08 04:06 | 37.92845 | -23.84827 | 32050 ft | 449 kts | 80° |
| 2026-05-08 04:06 | 37.92987 | -23.80870 | 32292 ft | 450 kts | 80° |
| 2026-05-08 04:06 | 37.93126 | -23.76903 | 32531 ft | 452 kts | 81° |
| 2026-05-08 04:07 | 37.93257 | -23.72925 | 32793 ft | 453 kts | 81° |
| 2026-05-08 04:07 | 37.93389 | -23.68929 | 33030 ft | 454 kts | 81° |
| 2026-05-08 04:07 | 37.93521 | -23.64931 | 33270 ft | 455 kts | 82° |
| 2026-05-08 04:07 | 37.93655 | -23.60978 | 33507 ft | 456 kts | 82° |
| 2026-05-08 04:08 | 37.93799 | -23.56914 | 33755 ft | 457 kts | 82° |
| 2026-05-08 04:08 | 37.93937 | -23.52885 | 33964 ft | 458 kts | 82° |
| 2026-05-08 04:08 | 37.94062 | -23.48910 | 34155 ft | 458 kts | 82° |
| 2026-05-08 04:08 | 37.94184 | -23.44875 | 34355 ft | 459 kts | 82° |
| 2026-05-08 04:09 | 37.94309 | -23.40837 | 34582 ft | 459 kts | 83° |
| 2026-05-08 04:09 | 37.94437 | -23.36793 | 34740 ft | 460 kts | 83° |
| 2026-05-08 04:09 | 37.94686 | -23.28686 | 34781 ft | 455 kts | 83° |
| 2026-05-08 04:10 | 37.95764 | -23.20920 | 34779 ft | 443 kts | 65° |
| 2026-05-08 04:10 | 37.98133 | -23.13826 | 34776 ft | 440 kts | 61° |
| 2026-05-08 04:11 | 38.00592 | -23.06713 | 34764 ft | 441 kts | 62° |
| 2026-05-08 04:11 | 38.03041 | -22.99575 | 34762 ft | 442 kts | 62° |
| 2026-05-08 04:12 | 38.05469 | -22.92419 | 34752 ft | 442 kts | 62° |
| 2026-05-08 04:12 | 38.07887 | -22.85257 | 34749 ft | 442 kts | 62° |
| 2026-05-08 04:13 | 38.10310 | -22.78095 | 34760 ft | 442 kts | 62° |
| 2026-05-08 04:13 | 38.12745 | -22.70926 | 34738 ft | 442 kts | 62° |
| 2026-05-08 04:14 | 38.15170 | -22.63747 | 34742 ft | 442 kts | 63° |
| 2026-05-08 04:14 | 38.17584 | -22.56555 | 34727 ft | 442 kts | 63° |
| 2026-05-08 04:15 | 38.19998 | -22.49363 | 34720 ft | 442 kts | 63° |
| 2026-05-08 04:15 | 38.22409 | -22.42159 | 34721 ft | 443 kts | 63° |
| 2026-05-08 04:16 | 38.24814 | -22.34949 | 34717 ft | 443 kts | 63° |
| 2026-05-08 04:16 | 38.27218 | -22.27726 | 34712 ft | 443 kts | 63° |
| 2026-05-08 04:17 | 38.29619 | -22.20503 | 34711 ft | 443 kts | 63° |
| 2026-05-08 04:17 | 38.32014 | -22.13270 | 34704 ft | 443 kts | 63° |
| 2026-05-08 04:18 | 38.34408 | -22.06035 | 34706 ft | 443 kts | 63° |
| 2026-05-08 04:18 | 38.36793 | -21.98800 | 34718 ft | 443 kts | 63° |
| 2026-05-08 04:19 | 38.39171 | -21.91574 | 34714 ft | 442 kts | 63° |
| 2026-05-08 04:19 | 38.41543 | -21.84348 | 34707 ft | 441 kts | 64° |
| 2026-05-08 04:20 | 38.43906 | -21.77126 | 34696 ft | 442 kts | 64° |
| 2026-05-08 04:20 | 38.46269 | -21.69883 | 34682 ft | 443 kts | 64° |
| 2026-05-08 04:21 | 38.48627 | -21.62618 | 34670 ft | 443 kts | 65° |
| 2026-05-08 04:21 | 38.50990 | -21.55343 | 34671 ft | 444 kts | 65° |
| 2026-05-08 04:22 | 38.53347 | -21.48103 | 34667 ft | 444 kts | 64° |
| 2026-05-08 04:22 | 38.55707 | -21.40805 | 34669 ft | 445 kts | 64° |
| 2026-05-08 04:23 | 38.58061 | -21.33482 | 34658 ft | 445 kts | 65° |
| 2026-05-08 04:23 | 38.60407 | -21.26153 | 34652 ft | 446 kts | 64° |
| 2026-05-08 04:24 | 38.62764 | -21.18818 | 34654 ft | 446 kts | 65° |
| 2026-05-08 04:24 | 38.65112 | -21.11480 | 34648 ft | 446 kts | 65° |
| 2026-05-08 04:25 | 38.67458 | -21.04134 | 34642 ft | 446 kts | 65° |
| 2026-05-08 04:25 | 38.69794 | -20.96767 | 34637 ft | 447 kts | 64° |
| 2026-05-08 04:26 | 38.72136 | -20.89391 | 34632 ft | 447 kts | 64° |
| 2026-05-08 04:26 | 38.74485 | -20.82003 | 34632 ft | 448 kts | 65° |
| 2026-05-08 04:27 | 38.76827 | -20.74607 | 34628 ft | 448 kts | 67° |
| 2026-05-08 04:27 | 38.79151 | -20.67190 | 34623 ft | 449 kts | 68° |
| 2026-05-08 04:28 | 38.81474 | -20.59756 | 34617 ft | 449 kts | 67° |
| 2026-05-08 04:28 | 38.83793 | -20.52324 | 34612 ft | 449 kts | 66° |
| 2026-05-08 04:29 | 38.86116 | -20.44890 | 34613 ft | 449 kts | 67° |
| 2026-05-08 04:29 | 38.88440 | -20.37448 | 34614 ft | 449 kts | 67° |
| 2026-05-08 04:30 | 38.90759 | -20.29995 | 34611 ft | 450 kts | 66° |
| 2026-05-08 04:30 | 38.93066 | -20.22524 | 34611 ft | 450 kts | 66° |
| 2026-05-08 04:31 | 38.95368 | -20.15057 | 34613 ft | 450 kts | 66° |
| 2026-05-08 04:31 | 38.97680 | -20.07592 | 34605 ft | 450 kts | 68° |
| 2026-05-08 04:32 | 38.99963 | -20.00103 | 34597 ft | 450 kts | 71° |
| 2026-05-08 04:32 | 39.01719 | -19.92369 | 34595 ft | 451 kts | 73° |
| 2026-05-08 04:33 | 39.03153 | -19.85920 | 34592 ft | 451 kts | 73° |
| 2026-05-08 04:33 | 39.04880 | -19.78161 | 34598 ft | 452 kts | 74° |
| 2026-05-08 04:34 | 39.06611 | -19.70391 | 34597 ft | 452 kts | 73° |
| 2026-05-08 04:34 | 39.08332 | -19.62605 | 34597 ft | 453 kts | 74° |
| 2026-05-08 04:35 | 39.10050 | -19.54801 | 34600 ft | 453 kts | 74° |
| 2026-05-08 04:35 | 39.11766 | -19.46999 | 34595 ft | 453 kts | 74° |
| 2026-05-08 04:36 | 39.13480 | -19.39188 | 34588 ft | 453 kts | 74° |
| 2026-05-08 04:36 | 39.15187 | -19.31384 | 34588 ft | 453 kts | 75° |
| 2026-05-08 04:37 | 39.16879 | -19.23573 | 34580 ft | 453 kts | 75° |
| 2026-05-08 04:37 | 39.18568 | -19.15760 | 34580 ft | 453 kts | 75° |
| 2026-05-08 04:38 | 39.20251 | -19.07942 | 34572 ft | 453 kts | 75° |
| 2026-05-08 04:38 | 39.21936 | -19.00119 | 34571 ft | 453 kts | 75° |
| 2026-05-08 04:39 | 39.23616 | -18.92283 | 34563 ft | 453 kts | 75° |
| 2026-05-08 04:39 | 39.25288 | -18.84440 | 34562 ft | 453 kts | 75° |
| 2026-05-08 04:40 | 39.26947 | -18.76655 | 34560 ft | 453 kts | 76° |
| 2026-05-08 04:40 | 39.28608 | -18.68812 | 34557 ft | 453 kts | 75° |
| 2026-05-08 04:41 | 39.30265 | -18.60966 | 34562 ft | 453 kts | 76° |
| 2026-05-08 04:41 | 39.31920 | -18.53112 | 34561 ft | 453 kts | 75° |
| 2026-05-08 04:42 | 39.33562 | -18.45263 | 34563 ft | 453 kts | 76° |
| 2026-05-08 04:42 | 39.35201 | -18.37404 | 34559 ft | 453 kts | 76° |
| 2026-05-08 04:43 | 39.36834 | -18.29549 | 34552 ft | 453 kts | 76° |
| 2026-05-08 04:43 | 39.38471 | -18.21685 | 34555 ft | 453 kts | 76° |
| 2026-05-08 04:44 | 39.40092 | -18.13821 | 34554 ft | 453 kts | 76° |
| 2026-05-08 04:44 | 39.41712 | -18.05955 | 34552 ft | 453 kts | 76° |
| 2026-05-08 04:45 | 39.43316 | -17.98089 | 34563 ft | 452 kts | 77° |
| 2026-05-08 04:45 | 39.44921 | -17.90223 | 34565 ft | 452 kts | 76° |
| 2026-05-08 04:46 | 39.46523 | -17.82537 | 34566 ft | 452 kts | 71° |
| 2026-05-08 04:46 | 39.47893 | -17.78883 | 34567 ft | 453 kts | 56° |
| 2026-05-08 04:46 | 39.49784 | -17.75623 | 34561 ft | 453 kts | 52° |
| 2026-05-08 04:47 | 39.53681 | -17.69190 | 34552 ft | 454 kts | 52° |
| 2026-05-08 04:47 | 39.57595 | -17.62759 | 34553 ft | 455 kts | 52° |
| 2026-05-08 04:48 | 39.61505 | -17.56291 | 34557 ft | 456 kts | 53° |
| 2026-05-08 04:48 | 39.65402 | -17.49791 | 34561 ft | 457 kts | 53° |
| 2026-05-08 04:49 | 39.69305 | -17.43282 | 34576 ft | 457 kts | 53° |
| 2026-05-08 04:49 | 39.73210 | -17.36757 | 34568 ft | 458 kts | 53° |
| 2026-05-08 04:50 | 39.77086 | -17.30256 | 34570 ft | 459 kts | 53° |
| 2026-05-08 04:50 | 39.80996 | -17.23695 | 34582 ft | 459 kts | 53° |
| 2026-05-08 04:51 | 39.84913 | -17.17121 | 34591 ft | 460 kts | 53° |
| 2026-05-08 04:51 | 39.88822 | -17.10537 | 34611 ft | 459 kts | 53° |
| 2026-05-08 04:52 | 39.92720 | -17.03966 | 34620 ft | 458 kts | 53° |
| 2026-05-08 04:52 | 39.96610 | -16.97370 | 34608 ft | 459 kts | 53° |
| 2026-05-08 04:53 | 40.00500 | -16.90766 | 34622 ft | 459 kts | 53° |
| 2026-05-08 04:53 | 40.04397 | -16.84157 | 34633 ft | 460 kts | 53° |
| 2026-05-08 04:54 | 40.08294 | -16.77542 | 34633 ft | 460 kts | 53° |
| 2026-05-08 04:54 | 40.12183 | -16.70903 | 34644 ft | 460 kts | 54° |
| 2026-05-08 04:55 | 40.16056 | -16.64261 | 34657 ft | 459 kts | 54° |
| 2026-05-08 04:55 | 40.19930 | -16.57625 | 34669 ft | 458 kts | 54° |
| 2026-05-08 04:56 | 40.23796 | -16.51001 | 34666 ft | 458 kts | 53° |
| 2026-05-08 04:56 | 40.27644 | -16.44369 | 34675 ft | 457 kts | 54° |
| 2026-05-08 04:57 | 40.31488 | -16.37739 | 34673 ft | 457 kts | 53° |
| 2026-05-08 04:57 | 40.35332 | -16.31116 | 34674 ft | 456 kts | 53° |
| 2026-05-08 04:58 | 40.39164 | -16.24487 | 34685 ft | 456 kts | 54° |
| 2026-05-08 04:58 | 40.42992 | -16.17844 | 34701 ft | 456 kts | 54° |
| 2026-05-08 04:59 | 40.46776 | -16.11251 | 34708 ft | 455 kts | 54° |
| 2026-05-08 04:59 | 40.50578 | -16.04613 | 34710 ft | 455 kts | 54° |
| 2026-05-08 05:00 | 40.54377 | -15.97979 | 34698 ft | 454 kts | 54° |
| 2026-05-08 05:00 | 40.58175 | -15.91335 | 34704 ft | 455 kts | 54° |
| 2026-05-08 05:01 | 40.61974 | -15.84670 | 34705 ft | 455 kts | 54° |
| 2026-05-08 05:01 | 40.65775 | -15.78009 | 34711 ft | 455 kts | 54° |
| 2026-05-08 05:02 | 40.69567 | -15.71333 | 34719 ft | 455 kts | 54° |
| 2026-05-08 05:02 | 40.73351 | -15.64643 | 34715 ft | 455 kts | 54° |
| 2026-05-08 05:03 | 40.77138 | -15.57949 | 34716 ft | 455 kts | 54° |
| 2026-05-08 05:03 | 40.80926 | -15.51240 | 34729 ft | 456 kts | 54° |
| 2026-05-08 05:04 | 40.84708 | -15.44528 | 34728 ft | 456 kts | 54° |
| 2026-05-08 05:04 | 40.88487 | -15.37805 | 34738 ft | 456 kts | 54° |
| 2026-05-08 05:05 | 40.92254 | -15.31063 | 34745 ft | 456 kts | 54° |
| 2026-05-08 05:05 | 40.96022 | -15.24318 | 34745 ft | 456 kts | 54° |
| 2026-05-08 05:06 | 40.99792 | -15.17564 | 34765 ft | 455 kts | 54° |
| 2026-05-08 05:06 | 41.03547 | -15.10818 | 34770 ft | 455 kts | 54° |
| 2026-05-08 05:07 | 41.07289 | -15.04076 | 34769 ft | 454 kts | 55° |
| 2026-05-08 05:07 | 41.11029 | -14.97340 | 34768 ft | 454 kts | 54° |
| 2026-05-08 05:08 | 41.14760 | -14.90600 | 34763 ft | 453 kts | 55° |
| 2026-05-08 05:08 | 41.18457 | -14.83895 | 34767 ft | 453 kts | 55° |
| 2026-05-08 05:09 | 41.22170 | -14.77145 | 34774 ft | 452 kts | 55° |
| 2026-05-08 05:09 | 41.25881 | -14.70397 | 34777 ft | 452 kts | 55° |
| 2026-05-08 05:10 | 41.31436 | -14.60264 | 34781 ft | 452 kts | 55° |
| 2026-05-08 05:11 | 41.35125 | -14.53511 | 34774 ft | 451 kts | 56° |
| 2026-05-08 05:11 | 41.38806 | -14.46765 | 34783 ft | 450 kts | 56° |
| 2026-05-08 05:12 | 41.42479 | -14.40020 | 34784 ft | 450 kts | 56° |
| 2026-05-08 05:12 | 41.46143 | -14.33267 | 34791 ft | 450 kts | 56° |
| 2026-05-08 05:13 | 41.49810 | -14.26503 | 34791 ft | 450 kts | 56° |
| 2026-05-08 05:13 | 41.53460 | -14.19734 | 34782 ft | 449 kts | 57° |
| 2026-05-08 05:14 | 41.57101 | -14.12975 | 34805 ft | 448 kts | 57° |
| 2026-05-08 05:14 | 41.60737 | -14.06229 | 34809 ft | 447 kts | 57° |
| 2026-05-08 05:15 | 41.64366 | -13.99475 | 34794 ft | 447 kts | 57° |
| 2026-05-08 05:15 | 41.67982 | -13.92724 | 34803 ft | 446 kts | 57° |
| 2026-05-08 05:16 | 41.71593 | -13.85969 | 34803 ft | 446 kts | 57° |
| 2026-05-08 05:16 | 41.75196 | -13.79212 | 34795 ft | 446 kts | 58° |
| 2026-05-08 05:17 | 41.78793 | -13.72453 | 34808 ft | 445 kts | 58° |
| 2026-05-08 05:17 | 41.82389 | -13.65689 | 34808 ft | 445 kts | 58° |
| 2026-05-08 05:18 | 41.85972 | -13.58933 | 34821 ft | 444 kts | 58° |
| 2026-05-08 05:18 | 41.89548 | -13.52169 | 34820 ft | 444 kts | 58° |
| 2026-05-08 05:19 | 41.92517 | -13.46536 | 34812 ft | 444 kts | 59° |
| 2026-05-08 05:19 | 41.96075 | -13.39760 | 34818 ft | 444 kts | 59° |
| 2026-05-08 05:20 | 41.99635 | -13.32984 | 34821 ft | 443 kts | 59° |
| 2026-05-08 05:20 | 42.03186 | -13.26212 | 34825 ft | 443 kts | 59° |
| 2026-05-08 05:21 | 42.06736 | -13.19432 | 34831 ft | 443 kts | 59° |
| 2026-05-08 05:21 | 42.10280 | -13.12644 | 34811 ft | 443 kts | 60° |
| 2026-05-08 05:22 | 42.13810 | -13.05845 | 34827 ft | 443 kts | 60° |
| 2026-05-08 05:22 | 42.17344 | -12.99037 | 34830 ft | 443 kts | 60° |
| 2026-05-08 05:23 | 42.20876 | -12.92233 | 34836 ft | 443 kts | 60° |
| 2026-05-08 05:23 | 42.24401 | -12.85421 | 34840 ft | 443 kts | 60° |
| 2026-05-08 05:24 | 42.27903 | -12.78643 | 34835 ft | 443 kts | 60° |
| 2026-05-08 05:24 | 42.31416 | -12.71825 | 34823 ft | 442 kts | 61° |
| 2026-05-08 05:25 | 42.34916 | -12.65004 | 34827 ft | 441 kts | 61° |
| 2026-05-08 05:25 | 42.38407 | -12.58185 | 34832 ft | 441 kts | 61° |
| 2026-05-08 05:26 | 42.41893 | -12.51365 | 34843 ft | 440 kts | 61° |
| 2026-05-08 05:26 | 42.45372 | -12.44550 | 34849 ft | 440 kts | 61° |
| 2026-05-08 05:27 | 42.48844 | -12.37731 | 34817 ft | 439 kts | 62° |
| 2026-05-08 05:27 | 42.52309 | -12.30915 | 34843 ft | 439 kts | 62° |
| 2026-05-08 05:28 | 42.55769 | -12.24091 | 34849 ft | 438 kts | 62° |
| 2026-05-08 05:28 | 42.59212 | -12.17270 | 34855 ft | 438 kts | 62° |
| 2026-05-08 05:29 | 42.62639 | -12.10444 | 34855 ft | 437 kts | 62° |
| 2026-05-08 05:29 | 42.66045 | -12.03673 | 34830 ft | 437 kts | 62° |
| 2026-05-08 05:30 | 42.69110 | -11.96636 | 34834 ft | 429 kts | 71° |
| 2026-05-08 05:30 | 42.71714 | -11.89350 | 34839 ft | 428 kts | 71° |
| 2026-05-08 05:31 | 42.74321 | -11.82065 | 34844 ft | 428 kts | 71° |
| 2026-05-08 05:31 | 42.76923 | -11.74774 | 34853 ft | 428 kts | 71° |
| 2026-05-08 05:32 | 42.79519 | -11.67475 | 34851 ft | 428 kts | 71° |
| 2026-05-08 05:32 | 42.82109 | -11.60159 | 34853 ft | 428 kts | 71° |
| 2026-05-08 05:33 | 42.84696 | -11.52847 | 34856 ft | 429 kts | 71° |
| 2026-05-08 05:33 | 42.87282 | -11.45531 | 34849 ft | 428 kts | 71° |
| 2026-05-08 05:34 | 42.89860 | -11.38207 | 34851 ft | 428 kts | 71° |
| 2026-05-08 05:34 | 42.92436 | -11.30879 | 34828 ft | 429 kts | 70° |
| 2026-05-08 05:35 | 42.95016 | -11.23539 | 34839 ft | 429 kts | 71° |
| 2026-05-08 05:35 | 42.97582 | -11.16190 | 34847 ft | 429 kts | 71° |
| 2026-05-08 05:36 | 43.00144 | -11.08833 | 34850 ft | 429 kts | 71° |
| 2026-05-08 05:36 | 43.02706 | -11.01461 | 34850 ft | 429 kts | 71° |
| 2026-05-08 05:37 | 43.05255 | -10.94088 | 34829 ft | 429 kts | 71° |
| 2026-05-08 05:37 | 43.07801 | -10.86703 | 34834 ft | 430 kts | 71° |
| 2026-05-08 05:38 | 43.10352 | -10.79300 | 34839 ft | 431 kts | 71° |
| 2026-05-08 05:38 | 43.12901 | -10.71873 | 34836 ft | 431 kts | 71° |
| 2026-05-08 05:39 | 43.15457 | -10.64438 | 34836 ft | 432 kts | 71° |
| 2026-05-08 05:39 | 43.18008 | -10.56979 | 34814 ft | 433 kts | 71° |
| 2026-05-08 05:40 | 43.20527 | -10.49539 | 34823 ft | 434 kts | 71° |
| 2026-05-08 05:40 | 43.23086 | -10.42028 | 34831 ft | 435 kts | 71° |
| 2026-05-08 05:41 | 43.25650 | -10.34490 | 34837 ft | 436 kts | 71° |
| 2026-05-08 05:41 | 43.28203 | -10.26940 | 34841 ft | 436 kts | 71° |
| 2026-05-08 05:42 | 43.30748 | -10.19378 | 34819 ft | 437 kts | 71° |
| 2026-05-08 05:42 | 43.33298 | -10.11792 | 34827 ft | 438 kts | 71° |
| 2026-05-08 05:43 | 43.35786 | -10.04333 | 34837 ft | 438 kts | 71° |
| 2026-05-08 05:43 | 43.38338 | -9.96702 | 34861 ft | 440 kts | 71° |
| 2026-05-08 05:44 | 43.40889 | -9.89053 | 34858 ft | 441 kts | 71° |
| 2026-05-08 05:44 | 43.43441 | -9.81384 | 34858 ft | 441 kts | 70° |
| 2026-05-08 05:45 | 43.45987 | -9.73684 | 34868 ft | 442 kts | 71° |
| 2026-05-08 05:45 | 43.48531 | -9.65984 | 34859 ft | 442 kts | 71° |
| 2026-05-08 05:46 | 43.51065 | -9.58279 | 34847 ft | 442 kts | 71° |
| 2026-05-08 05:46 | 43.53602 | -9.50566 | 34854 ft | 442 kts | 71° |
| 2026-05-08 05:47 | 43.56133 | -9.42847 | 34830 ft | 441 kts | 70° |
| 2026-05-08 05:47 | 43.58639 | -9.35179 | 34838 ft | 442 kts | 70° |
| 2026-05-08 05:48 | 43.61157 | -9.27448 | 34831 ft | 442 kts | 70° |
| 2026-05-08 05:48 | 43.63692 | -9.19658 | 34836 ft | 442 kts | 71° |
| 2026-05-08 05:49 | 43.66183 | -9.11962 | 34835 ft | 442 kts | 71° |
| 2026-05-08 05:49 | 43.68700 | -9.04153 | 34810 ft | 442 kts | 70° |
| 2026-05-08 05:50 | 43.71190 | -8.96432 | 34819 ft | 443 kts | 70° |
| 2026-05-08 05:50 | 43.73687 | -8.88656 | 34825 ft | 443 kts | 70° |
| 2026-05-08 05:51 | 43.76176 | -8.80868 | 34836 ft | 443 kts | 70° |
| 2026-05-08 05:51 | 43.78658 | -8.73072 | 34841 ft | 443 kts | 71° |
| 2026-05-08 05:52 | 43.81141 | -8.65271 | 34828 ft | 442 kts | 70° |
| 2026-05-08 05:52 | 43.83621 | -8.57478 | 34839 ft | 442 kts | 70° |
| 2026-05-08 05:53 | 43.86090 | -8.49683 | 34840 ft | 442 kts | 70° |
| 2026-05-08 05:53 | 43.88545 | -8.41882 | 34849 ft | 442 kts | 70° |
| 2026-05-08 05:54 | 43.90997 | -8.34078 | 34830 ft | 441 kts | 70° |
| 2026-05-08 05:54 | 43.93447 | -8.26261 | 34839 ft | 442 kts | 70° |
| 2026-05-08 05:55 | 43.95892 | -8.18436 | 34842 ft | 442 kts | 70° |
| 2026-05-08 05:55 | 43.98336 | -8.10602 | 34847 ft | 442 kts | 70° |
| 2026-05-08 05:56 | 44.00772 | -8.02754 | 34845 ft | 443 kts | 70° |
| 2026-05-08 05:56 | 44.03203 | -7.94892 | 34848 ft | 443 kts | 70° |
| 2026-05-08 05:57 | 44.05633 | -7.87035 | 34851 ft | 443 kts | 71° |
| 2026-05-08 05:57 | 44.08054 | -7.79170 | 34852 ft | 442 kts | 71° |
| 2026-05-08 05:58 | 44.10472 | -7.71293 | 34853 ft | 442 kts | 71° |
| 2026-05-08 05:58 | 44.12879 | -7.63418 | 34847 ft | 442 kts | 71° |
| 2026-05-08 05:59 | 44.15283 | -7.55537 | 34836 ft | 442 kts | 71° |
| 2026-05-08 05:59 | 44.17680 | -7.47646 | 34841 ft | 443 kts | 71° |
| 2026-05-08 06:00 | 44.20083 | -7.39739 | 34838 ft | 444 kts | 71° |
| 2026-05-08 06:00 | 44.22481 | -7.31798 | 34834 ft | 444 kts | 71° |
| 2026-05-08 06:01 | 44.24875 | -7.23846 | 34842 ft | 445 kts | 71° |
| 2026-05-08 06:01 | 44.27269 | -7.15882 | 34827 ft | 446 kts | 70° |
| 2026-05-08 06:02 | 44.29646 | -7.07944 | 34827 ft | 446 kts | 71° |
| 2026-05-08 06:02 | 44.32031 | -6.99942 | 34832 ft | 447 kts | 71° |
| 2026-05-08 06:03 | 44.34418 | -6.91931 | 34836 ft | 447 kts | 71° |
| 2026-05-08 06:03 | 44.36800 | -6.83910 | 34823 ft | 447 kts | 70° |
| 2026-05-08 06:04 | 44.39172 | -6.75859 | 34827 ft | 447 kts | 71° |
| 2026-05-08 06:04 | 44.41541 | -6.67806 | 34833 ft | 448 kts | 71° |
| 2026-05-08 06:05 | 44.43919 | -6.59741 | 34836 ft | 449 kts | 70° |
| 2026-05-08 06:05 | 44.45891 | -6.53014 | 34835 ft | 450 kts | 71° |
| 2026-05-08 06:06 | 44.48260 | -6.44898 | 34824 ft | 450 kts | 70° |
| 2026-05-08 06:06 | 44.50625 | -6.36768 | 34831 ft | 451 kts | 70° |
| 2026-05-08 06:07 | 44.52989 | -6.28615 | 34834 ft | 452 kts | 70° |
| 2026-05-08 06:07 | 44.55349 | -6.20443 | 34838 ft | 452 kts | 70° |
| 2026-05-08 06:08 | 44.57707 | -6.12253 | 34842 ft | 453 kts | 70° |
| 2026-05-08 06:08 | 44.60067 | -6.04064 | 34827 ft | 453 kts | 70° |
| 2026-05-08 06:09 | 44.62425 | -5.95850 | 34839 ft | 454 kts | 70° |
| 2026-05-08 06:09 | 44.64813 | -5.87650 | 34842 ft | 455 kts | 66° |
| 2026-05-08 06:10 | 44.68376 | -5.80306 | 34841 ft | 458 kts | 47° |
| 2026-05-08 06:10 | 44.72936 | -5.74044 | 34845 ft | 459 kts | 45° |
| 2026-05-08 06:11 | 44.77509 | -5.67783 | 34835 ft | 459 kts | 44° |
| 2026-05-08 06:11 | 44.82081 | -5.61498 | 34842 ft | 459 kts | 44° |
| 2026-05-08 06:12 | 44.86648 | -5.55205 | 34859 ft | 459 kts | 44° |
| 2026-05-08 06:12 | 44.91213 | -5.48897 | 34856 ft | 460 kts | 44° |
| 2026-05-08 06:13 | 44.95782 | -5.42573 | 34863 ft | 460 kts | 44° |
| 2026-05-08 06:13 | 45.00349 | -5.36249 | 34862 ft | 460 kts | 44° |
| 2026-05-08 06:14 | 45.04909 | -5.29913 | 34854 ft | 460 kts | 44° |
| 2026-05-08 06:14 | 45.09459 | -5.23559 | 34864 ft | 460 kts | 44° |
| 2026-05-08 06:15 | 45.14007 | -5.17196 | 34875 ft | 460 kts | 44° |
| 2026-05-08 06:15 | 45.18527 | -5.10862 | 34875 ft | 460 kts | 44° |
| 2026-05-08 06:16 | 45.23075 | -5.04493 | 34875 ft | 460 kts | 44° |
| 2026-05-08 06:16 | 45.27644 | -4.98064 | 34883 ft | 459 kts | 44° |
| 2026-05-08 06:17 | 45.34436 | -4.88475 | 34891 ft | 459 kts | 43° |
| 2026-05-08 06:17 | 45.38963 | -4.82077 | 34896 ft | 458 kts | 44° |
| 2026-05-08 06:18 | 45.43445 | -4.75715 | 34893 ft | 458 kts | 44° |
| 2026-05-08 06:18 | 45.47947 | -4.69297 | 34892 ft | 458 kts | 44° |
| 2026-05-08 06:19 | 45.52446 | -4.62871 | 34899 ft | 458 kts | 43° |
| 2026-05-08 06:19 | 45.56944 | -4.56442 | 34897 ft | 458 kts | 43° |
| 2026-05-08 06:20 | 45.61438 | -4.50004 | 34901 ft | 458 kts | 43° |
| 2026-05-08 06:20 | 45.65932 | -4.43553 | 34901 ft | 458 kts | 43° |
| 2026-05-08 06:21 | 45.70421 | -4.37100 | 34915 ft | 458 kts | 43° |
| 2026-05-08 06:21 | 45.74910 | -4.30630 | 34911 ft | 458 kts | 43° |
| 2026-05-08 06:22 | 45.79385 | -4.24147 | 34914 ft | 458 kts | 43° |
| 2026-05-08 06:22 | 45.83857 | -4.17653 | 34913 ft | 458 kts | 43° |
| 2026-05-08 06:23 | 45.88328 | -4.11154 | 34912 ft | 458 kts | 43° |
| 2026-05-08 06:23 | 45.92803 | -4.04643 | 34922 ft | 458 kts | 43° |
| 2026-05-08 06:24 | 45.97272 | -3.98129 | 34924 ft | 458 kts | 43° |
| 2026-05-08 06:24 | 46.01731 | -3.91594 | 34919 ft | 458 kts | 43° |
| 2026-05-08 06:25 | 46.06184 | -3.85054 | 34925 ft | 457 kts | 43° |
| 2026-05-08 06:25 | 46.10634 | -3.78505 | 34925 ft | 457 kts | 43° |
| 2026-05-08 06:26 | 46.15078 | -3.71945 | 34932 ft | 457 kts | 43° |
| 2026-05-08 06:26 | 46.19524 | -3.65371 | 34935 ft | 457 kts | 43° |
| 2026-05-08 06:27 | 46.23962 | -3.58793 | 34931 ft | 457 kts | 42° |
| 2026-05-08 06:27 | 46.28369 | -3.52246 | 34941 ft | 457 kts | 43° |
| 2026-05-08 06:28 | 46.32793 | -3.45656 | 34953 ft | 457 kts | 43° |
| 2026-05-08 06:28 | 46.37212 | -3.39057 | 34952 ft | 456 kts | 43° |
| 2026-05-08 06:29 | 46.41631 | -3.32449 | 34951 ft | 456 kts | 43° |
| 2026-05-08 06:29 | 46.46042 | -3.25836 | 34954 ft | 456 kts | 43° |
| 2026-05-08 06:30 | 46.50440 | -3.19204 | 34956 ft | 456 kts | 42° |
| 2026-05-08 06:30 | 46.54829 | -3.12565 | 34972 ft | 455 kts | 42° |
| 2026-05-08 06:31 | 46.58625 | -3.05147 | 34970 ft | 461 kts | 57° |
| 2026-05-08 06:31 | 46.61852 | -2.97094 | 34968 ft | 461 kts | 57° |
| 2026-05-08 06:32 | 46.65085 | -2.89044 | 34966 ft | 461 kts | 57° |
| 2026-05-08 06:32 | 46.68313 | -2.80985 | 34965 ft | 461 kts | 56° |
| 2026-05-08 06:33 | 46.71526 | -2.72919 | 34975 ft | 460 kts | 56° |
| 2026-05-08 06:33 | 46.74734 | -2.64845 | 34977 ft | 460 kts | 56° |
| 2026-05-08 06:34 | 46.77935 | -2.56765 | 34970 ft | 460 kts | 57° |
| 2026-05-08 06:34 | 46.81131 | -2.48678 | 34969 ft | 460 kts | 57° |
| 2026-05-08 06:35 | 46.84317 | -2.40587 | 34974 ft | 460 kts | 56° |
| 2026-05-08 06:35 | 46.87523 | -2.32516 | 34976 ft | 459 kts | 55° |
| 2026-05-08 06:36 | 46.90865 | -2.24582 | 34975 ft | 458 kts | 54° |
| 2026-05-08 06:36 | 46.94256 | -2.16699 | 34975 ft | 458 kts | 54° |
| 2026-05-08 06:37 | 46.97616 | -2.08780 | 34981 ft | 458 kts | 54° |
| 2026-05-08 06:37 | 47.01302 | -2.01263 | 34990 ft | 449 kts | 40° |
| 2026-05-08 06:38 | 47.06039 | -1.95485 | 34987 ft | 441 kts | 31° |
| 2026-05-08 06:38 | 47.10945 | -1.90080 | 34985 ft | 441 kts | 31° |
| 2026-05-08 06:39 | 47.15842 | -1.84652 | 34983 ft | 441 kts | 31° |
| 2026-05-08 06:39 | 47.20748 | -1.79221 | 34992 ft | 441 kts | 31° |
| 2026-05-08 06:40 | 47.25656 | -1.73809 | 34990 ft | 441 kts | 31° |
| 2026-05-08 06:40 | 47.30563 | -1.68391 | 34984 ft | 441 kts | 31° |
| 2026-05-08 06:41 | 47.35253 | -1.62623 | 34994 ft | 448 kts | 42° |
| 2026-05-08 06:41 | 47.39167 | -1.55402 | 35010 ft | 450 kts | 47° |
| 2026-05-08 06:42 | 47.43022 | -1.48119 | 35008 ft | 450 kts | 46° |
| 2026-05-08 06:42 | 47.46873 | -1.40835 | 34994 ft | 450 kts | 47° |
| 2026-05-08 06:43 | 47.50716 | -1.33544 | 34988 ft | 449 kts | 47° |
| 2026-05-08 06:43 | 47.54552 | -1.26243 | 34994 ft | 449 kts | 47° |
| 2026-05-08 06:44 | 47.58383 | -1.18930 | 34994 ft | 449 kts | 47° |
| 2026-05-08 06:44 | 47.62208 | -1.11624 | 35012 ft | 448 kts | 47° |
| 2026-05-08 06:45 | 47.66022 | -1.04315 | 35012 ft | 448 kts | 47° |
| 2026-05-08 06:45 | 47.69824 | -0.96993 | 35010 ft | 448 kts | 47° |
| 2026-05-08 06:46 | 47.73620 | -0.89666 | 35007 ft | 448 kts | 47° |
| 2026-05-08 06:46 | 47.77421 | -0.82327 | 35019 ft | 448 kts | 47° |
| 2026-05-08 06:47 | 47.81164 | -0.74931 | 35035 ft | 450 kts | 54° |
| 2026-05-08 06:47 | 47.84075 | -0.66859 | 35018 ft | 453 kts | 58° |
| 2026-05-08 06:48 | 47.86994 | -0.58536 | 35022 ft | 453 kts | 58° |
| 2026-05-08 06:48 | 47.89414 | -0.51620 | 35022 ft | 453 kts | 58° |
| 2026-05-08 06:49 | 47.92821 | -0.41876 | 35029 ft | 453 kts | 58° |
| 2026-05-08 06:49 | 47.95235 | -0.34945 | 35021 ft | 453 kts | 58° |
| 2026-05-08 06:50 | 47.98609 | -0.25234 | 35027 ft | 453 kts | 58° |
| 2026-05-08 06:50 | 48.01029 | -0.18223 | 35022 ft | 453 kts | 58° |
| 2026-05-08 06:51 | 48.03911 | -0.09852 | 35028 ft | 453 kts | 58° |
| 2026-05-08 06:51 | 48.06801 | -0.01462 | 35037 ft | 454 kts | 58° |
| 2026-05-08 06:52 | 48.09664 | 0.06880 | 35036 ft | 454 kts | 59° |
| 2026-05-08 06:52 | 48.12543 | 0.15292 | 35026 ft | 454 kts | 59° |
| 2026-05-08 06:53 | 48.15410 | 0.23719 | 35022 ft | 454 kts | 59° |
| 2026-05-08 06:53 | 48.18265 | 0.32159 | 35022 ft | 454 kts | 59° |
| 2026-05-08 06:54 | 48.21121 | 0.40614 | 35022 ft | 454 kts | 60° |
| 2026-05-08 06:54 | 48.23974 | 0.49071 | 35038 ft | 455 kts | 61° |
| 2026-05-08 06:55 | 48.26832 | 0.57545 | 35033 ft | 455 kts | 61° |
| 2026-05-08 06:55 | 48.29680 | 0.66050 | 35030 ft | 456 kts | 61° |
| 2026-05-08 06:56 | 48.32519 | 0.74566 | 35032 ft | 456 kts | 61° |
| 2026-05-08 06:56 | 48.35356 | 0.83091 | 35031 ft | 456 kts | 61° |
| 2026-05-08 06:57 | 48.38187 | 0.91629 | 35032 ft | 456 kts | 62° |
| 2026-05-08 06:57 | 48.41015 | 1.00185 | 35041 ft | 456 kts | 62° |
| 2026-05-08 06:58 | 48.43839 | 1.08741 | 35052 ft | 456 kts | 62° |
| 2026-05-08 06:58 | 48.46656 | 1.17309 | 35051 ft | 457 kts | 62° |
| 2026-05-08 06:59 | 48.49462 | 1.25892 | 35050 ft | 456 kts | 62° |
| 2026-05-08 06:59 | 48.52256 | 1.34483 | 35052 ft | 456 kts | 63° |
| 2026-05-08 07:00 | 48.55047 | 1.43079 | 35055 ft | 456 kts | 63° |
| 2026-05-08 07:00 | 48.57836 | 1.51686 | 35057 ft | 456 kts | 63° |
| 2026-05-08 07:01 | 48.60622 | 1.60291 | 35058 ft | 456 kts | 63° |
| 2026-05-08 07:01 | 48.63394 | 1.68906 | 35057 ft | 456 kts | 63° |
| 2026-05-08 07:02 | 48.66161 | 1.77524 | 35063 ft | 455 kts | 63° |
| 2026-05-08 07:02 | 48.68914 | 1.86155 | 35069 ft | 455 kts | 64° |
| 2026-05-08 07:03 | 48.71654 | 1.94776 | 35094 ft | 454 kts | 64° |
| 2026-05-08 07:03 | 48.74390 | 2.03391 | 35093 ft | 454 kts | 64° |
| 2026-05-08 07:04 | 48.77119 | 2.12005 | 35087 ft | 453 kts | 64° |
| 2026-05-08 07:04 | 48.79839 | 2.20643 | 35084 ft | 453 kts | 64° |
| 2026-05-08 07:05 | 48.82539 | 2.29265 | 35091 ft | 452 kts | 64° |
| 2026-05-08 07:05 | 48.85219 | 2.37839 | 35089 ft | 452 kts | 64° |
| 2026-05-08 07:06 | 48.87909 | 2.46463 | 35086 ft | 452 kts | 64° |
| 2026-05-08 07:06 | 48.90598 | 2.55090 | 35084 ft | 452 kts | 64° |
| 2026-05-08 07:07 | 48.93277 | 2.63726 | 35078 ft | 451 kts | 64° |
| 2026-05-08 07:07 | 48.95945 | 2.72365 | 35082 ft | 451 kts | 64° |
| 2026-05-08 07:08 | 48.98602 | 2.81008 | 35079 ft | 451 kts | 64° |
| 2026-05-08 07:08 | 49.01248 | 2.89658 | 35071 ft | 451 kts | 64° |
| 2026-05-08 07:09 | 49.03891 | 2.98317 | 35076 ft | 450 kts | 64° |
| 2026-05-08 07:09 | 49.06494 | 3.06862 | 35082 ft | 450 kts | 65° |
| 2026-05-08 07:10 | 49.09132 | 3.15538 | 35071 ft | 450 kts | 65° |
| 2026-05-08 07:10 | 49.11756 | 3.24216 | 35066 ft | 451 kts | 65° |
| 2026-05-08 07:11 | 49.14374 | 3.32916 | 35068 ft | 451 kts | 65° |